sensor_id;sensor_type;location;lat;lon;timestamp;pressure;altitude;pressure_sealevel;temperature;humidity
39177;BME280;24904;52.208;21.192;2024-02-23T00:00:23;98550.31;;;8.84;69.78
39177;BME280;24904;52.208;21.192;2024-02-23T00:05:28;98545.23;;;8.84;69.66
39177;BME280;24904;52.208;21.192;2024-02-23T00:10:33;98542.50;;;8.84;70.03
39177;BME280;24904;52.208;21.192;2024-02-23T00:15:38;98538.27;;;8.84;69.86
39177;BME280;24904;52.208;21.192;2024-02-23T00:20:43;98539.76;;;8.84;69.99
39177;BME280;24904;52.208;21.192;2024-02-23T00:25:49;98537.66;;;8.83;70.06
39177;BME280;24904;52.208;21.192;2024-02-23T00:30:54;98532.81;;;8.83;70.12
39177;BME280;24904;52.208;21.192;2024-02-23T00:35:59;98535.55;;;8.83;70.31
39177;BME280;24904;52.208;21.192;2024-02-23T00:41:04;98538.06;;;8.82;70.14
39177;BME280;24904;52.208;21.192;2024-02-23T00:46:10;98532.26;;;8.84;70.17
39177;BME280;24904;52.208;21.192;2024-02-23T00:51:15;98528.34;;;8.84;70.24
39177;BME280;24904;52.208;21.192;2024-02-23T00:56:20;98519.05;;;8.83;70.35
39177;BME280;24904;52.208;21.192;2024-02-23T01:01:25;98516.33;;;8.83;70.23
39177;BME280;24904;52.208;21.192;2024-02-23T01:06:32;98505.92;;;8.83;70.39
39177;BME280;24904;52.208;21.192;2024-02-23T01:11:37;98498.70;;;8.85;70.35
39177;BME280;24904;52.208;21.192;2024-02-23T01:16:42;98493.70;;;8.85;70.55
39177;BME280;24904;52.208;21.192;2024-02-23T01:21:47;98487.83;;;8.85;70.61
39177;BME280;24904;52.208;21.192;2024-02-23T01:26:52;98483.98;;;8.85;70.56
39177;BME280;24904;52.208;21.192;2024-02-23T01:31:57;98486.44;;;8.84;70.64
39177;BME280;24904;52.208;21.192;2024-02-23T01:37:03;98475.79;;;8.85;70.71
39177;BME280;24904;52.208;21.192;2024-02-23T01:42:08;98476.59;;;8.83;70.80
39177;BME280;24904;52.208;21.192;2024-02-23T01:47:13;98476.50;;;8.84;71.04
39177;BME280;24904;52.208;21.192;2024-02-23T01:52:19;98474.91;;;8.87;71.05
39177;BME280;24904;52.208;21.192;2024-02-23T01:57:25;98477.39;;;8.90;71.12
39177;BME280;24904;52.208;21.192;2024-02-23T02:02:30;98481.28;;;8.91;71.35
39177;BME280;24904;52.208;21.192;2024-02-23T02:07:36;98480.98;;;8.89;71.37
39177;BME280;24904;52.208;21.192;2024-02-23T02:12:41;98479.69;;;8.93;71.35
39177;BME280;24904;52.208;21.192;2024-02-23T02:17:46;98474.54;;;8.98;71.48
39177;BME280;24904;52.208;21.192;2024-02-23T02:22:51;98469.11;;;9.00;71.45
39177;BME280;24904;52.208;21.192;2024-02-23T02:27:56;98461.29;;;9.00;71.24
39177;BME280;24904;52.208;21.192;2024-02-23T02:33:01;98457.84;;;9.02;71.48
39177;BME280;24904;52.208;21.192;2024-02-23T02:38:06;98456.49;;;9.03;71.64
39177;BME280;24904;52.208;21.192;2024-02-23T02:43:11;98454.21;;;9.04;71.43
39177;BME280;24904;52.208;21.192;2024-02-23T02:48:16;98449.51;;;9.05;71.41
39177;BME280;24904;52.208;21.192;2024-02-23T02:53:21;98453.02;;;9.05;71.76
39177;BME280;24904;52.208;21.192;2024-02-23T02:58:26;98457.86;;;9.05;71.66
39177;BME280;24904;52.208;21.192;2024-02-23T03:03:31;98453.64;;;9.06;71.99
39177;BME280;24904;52.208;21.192;2024-02-23T03:08:36;98458.86;;;9.07;71.99
39177;BME280;24904;52.208;21.192;2024-02-23T03:13:41;98456.50;;;9.08;72.00
39177;BME280;24904;52.208;21.192;2024-02-23T03:18:47;98455.56;;;9.08;72.01
39177;BME280;24904;52.208;21.192;2024-02-23T03:23:52;98463.39;;;9.07;72.29
39177;BME280;24904;52.208;21.192;2024-02-23T03:28:57;98464.86;;;9.08;72.76
39177;BME280;24904;52.208;21.192;2024-02-23T03:34:03;98477.39;;;9.07;73.38
39177;BME280;24904;52.208;21.192;2024-02-23T03:39:08;98481.68;;;9.02;74.02
39177;BME280;24904;52.208;21.192;2024-02-23T03:44:14;98483.84;;;8.93;75.09
39177;BME280;24904;52.208;21.192;2024-02-23T03:49:19;98487.75;;;8.85;75.63
39177;BME280;24904;52.208;21.192;2024-02-23T03:54:24;98486.67;;;8.78;76.18
39177;BME280;24904;52.208;21.192;2024-02-23T03:59:29;98489.58;;;8.70;77.00
39177;BME280;24904;52.208;21.192;2024-02-23T04:04:34;98496.22;;;8.64;77.86
39177;BME280;24904;52.208;21.192;2024-02-23T04:09:39;98497.31;;;8.57;78.20
39177;BME280;24904;52.208;21.192;2024-02-23T04:14:44;98502.54;;;8.50;78.85
39177;BME280;24904;52.208;21.192;2024-02-23T04:19:49;98501.73;;;8.47;79.46
39177;BME280;24904;52.208;21.192;2024-02-23T04:24:54;98508.63;;;8.45;79.84
39177;BME280;24904;52.208;21.192;2024-02-23T04:29:59;98507.70;;;8.43;80.22
39177;BME280;24904;52.208;21.192;2024-02-23T04:35:05;98519.42;;;8.42;80.37
39177;BME280;24904;52.208;21.192;2024-02-23T04:40:11;98523.07;;;8.38;80.83
39177;BME280;24904;52.208;21.192;2024-02-23T04:45:17;98519.37;;;8.29;80.89
39177;BME280;24904;52.208;21.192;2024-02-23T04:50:22;98526.79;;;8.31;81.29
39177;BME280;24904;52.208;21.192;2024-02-23T04:55:27;98529.07;;;8.26;81.66
39177;BME280;24904;52.208;21.192;2024-02-23T05:00:32;98534.09;;;8.25;81.84
39177;BME280;24904;52.208;21.192;2024-02-23T05:05:37;98538.55;;;8.24;82.18
39177;BME280;24904;52.208;21.192;2024-02-23T05:10:43;98542.69;;;8.25;82.43
39177;BME280;24904;52.208;21.192;2024-02-23T05:15:48;98553.52;;;8.21;82.70
39177;BME280;24904;52.208;21.192;2024-02-23T05:20:53;98559.20;;;8.21;83.06
39177;BME280;24904;52.208;21.192;2024-02-23T05:25:58;98560.81;;;8.18;83.17
39177;BME280;24904;52.208;21.192;2024-02-23T05:31:05;98567.69;;;8.15;83.41
39177;BME280;24904;52.208;21.192;2024-02-23T05:36:10;98574.36;;;8.12;83.76
39177;BME280;24904;52.208;21.192;2024-02-23T05:41:15;98581.84;;;8.12;84.22
39177;BME280;24904;52.208;21.192;2024-02-23T05:46:20;98583.33;;;8.12;84.45
39177;BME280;24904;52.208;21.192;2024-02-23T05:51:27;98595.46;;;8.09;84.75
39177;BME280;24904;52.208;21.192;2024-02-23T05:56:32;98603.20;;;8.08;84.86
39177;BME280;24904;52.208;21.192;2024-02-23T06:01:37;98607.95;;;8.10;85.21
39177;BME280;24904;52.208;21.192;2024-02-23T06:06:44;98606.34;;;8.08;85.44
39177;BME280;24904;52.208;21.192;2024-02-23T06:11:49;98614.84;;;8.08;85.62
39177;BME280;24904;52.208;21.192;2024-02-23T06:16:54;98625.06;;;8.09;86.07
39177;BME280;24904;52.208;21.192;2024-02-23T06:26:42;98640.09;;;8.15;86.40
39177;BME280;24904;52.208;21.192;2024-02-23T06:31:47;98642.59;;;8.16;86.40
39177;BME280;24904;52.208;21.192;2024-02-23T06:36:53;98653.04;;;8.20;86.63
39177;BME280;24904;52.208;21.192;2024-02-23T06:41:58;98661.71;;;8.21;86.79
39177;BME280;24904;52.208;21.192;2024-02-23T06:47:05;98664.52;;;8.21;86.99
39177;BME280;24904;52.208;21.192;2024-02-23T06:52:10;98668.16;;;8.22;87.05
39177;BME280;24904;52.208;21.192;2024-02-23T06:57:15;98671.05;;;8.24;87.26
39177;BME280;24904;52.208;21.192;2024-02-23T07:02:21;98672.96;;;8.30;87.57
39177;BME280;24904;52.208;21.192;2024-02-23T07:07:26;98679.75;;;8.30;87.44
39177;BME280;24904;52.208;21.192;2024-02-23T07:12:31;98686.23;;;8.30;87.65
39177;BME280;24904;52.208;21.192;2024-02-23T07:17:36;98694.36;;;8.30;87.84
39177;BME280;24904;52.208;21.192;2024-02-23T07:22:45;98705.60;;;8.37;88.00
39177;BME280;24904;52.208;21.192;2024-02-23T07:27:50;98712.59;;;8.41;88.28
39177;BME280;24904;52.208;21.192;2024-02-23T07:32:55;98714.77;;;8.44;88.24
39177;BME280;24904;52.208;21.192;2024-02-23T07:38:00;98718.67;;;8.45;88.47
39177;BME280;24904;52.208;21.192;2024-02-23T07:43:05;98720.61;;;8.47;88.30
39177;BME280;24904;52.208;21.192;2024-02-23T07:48:11;98727.23;;;8.50;88.47
39177;BME280;24904;52.208;21.192;2024-02-23T07:53:16;98736.46;;;8.49;88.49
39177;BME280;24904;52.208;21.192;2024-02-23T07:58:21;98740.73;;;8.51;88.76
39177;BME280;24904;52.208;21.192;2024-02-23T08:03:26;98750.64;;;8.55;88.88
39177;BME280;24904;52.208;21.192;2024-02-23T08:08:31;98756.33;;;8.57;89.00
39177;BME280;24904;52.208;21.192;2024-02-23T08:13:38;98758.73;;;8.57;88.96
39177;BME280;24904;52.208;21.192;2024-02-23T08:18:44;98763.67;;;8.59;89.19
39177;BME280;24904;52.208;21.192;2024-02-23T08:23:49;98770.39;;;8.61;89.40
39177;BME280;24904;52.208;21.192;2024-02-23T08:28:54;98783.42;;;8.62;89.53
39177;BME280;24904;52.208;21.192;2024-02-23T08:33:59;98786.75;;;8.67;89.66
39177;BME280;24904;52.208;21.192;2024-02-23T08:39:04;98784.08;;;8.69;89.55
39177;BME280;24904;52.208;21.192;2024-02-23T08:44:11;98798.20;;;8.71;89.74
39177;BME280;24904;52.208;21.192;2024-02-23T08:49:16;98799.92;;;8.73;89.99
39177;BME280;24904;52.208;21.192;2024-02-23T08:54:21;98803.19;;;8.77;90.14
39177;BME280;24904;52.208;21.192;2024-02-23T08:59:26;98812.14;;;8.81;90.22
39177;BME280;24904;52.208;21.192;2024-02-23T09:04:31;98818.23;;;8.81;90.18
39177;BME280;24904;52.208;21.192;2024-02-23T09:09:36;98824.46;;;8.84;90.52
39177;BME280;24904;52.208;21.192;2024-02-23T09:14:41;98831.27;;;8.88;90.42
39177;BME280;24904;52.208;21.192;2024-02-23T09:19:46;98829.75;;;8.91;90.50
39177;BME280;24904;52.208;21.192;2024-02-23T09:24:51;98832.84;;;8.96;90.64
39177;BME280;24904;52.208;21.192;2024-02-23T09:29:56;98836.08;;;9.04;90.85
39177;BME280;24904;52.208;21.192;2024-02-23T09:35:02;98837.27;;;9.10;91.00
39177;BME280;24904;52.208;21.192;2024-02-23T09:40:10;98839.48;;;9.17;91.26
39177;BME280;24904;52.208;21.192;2024-02-23T09:45:15;98843.56;;;9.26;91.35
39177;BME280;24904;52.208;21.192;2024-02-23T09:50:21;98854.67;;;9.35;91.43
39177;BME280;24904;52.208;21.192;2024-02-23T09:55:27;98857.05;;;9.40;91.31
39177;BME280;24904;52.208;21.192;2024-02-23T10:00:32;98866.05;;;9.44;91.20
39177;BME280;24904;52.208;21.192;2024-02-23T10:05:39;98870.15;;;9.47;91.29
39177;BME280;24904;52.208;21.192;2024-02-23T10:10:47;98876.00;;;9.49;91.24
39177;BME280;24904;52.208;21.192;2024-02-23T10:15:54;98874.88;;;9.52;91.09
39177;BME280;24904;52.208;21.192;2024-02-23T10:20:59;98877.83;;;9.54;91.46
39177;BME280;24904;52.208;21.192;2024-02-23T10:26:06;98885.26;;;9.55;91.05
39177;BME280;24904;52.208;21.192;2024-02-23T10:31:11;98890.73;;;9.58;91.38
39177;BME280;24904;52.208;21.192;2024-02-23T10:36:17;98891.56;;;9.61;91.42
39177;BME280;24904;52.208;21.192;2024-02-23T10:41:22;98897.25;;;9.64;91.64
39177;BME280;24904;52.208;21.192;2024-02-23T10:46:28;98904.77;;;9.64;91.49
39177;BME280;24904;52.208;21.192;2024-02-23T10:51:35;98914.77;;;9.65;91.49
39177;BME280;24904;52.208;21.192;2024-02-23T10:56:41;98918.52;;;9.67;91.60
39177;BME280;24904;52.208;21.192;2024-02-23T11:01:49;98924.45;;;9.69;91.47
39177;BME280;24904;52.208;21.192;2024-02-23T11:06:55;98929.84;;;9.71;91.94
39177;BME280;24904;52.208;21.192;2024-02-23T11:12:05;98935.55;;;9.72;91.83
39177;BME280;24904;52.208;21.192;2024-02-23T11:17:19;98943.19;;;9.77;92.12
39177;BME280;24904;52.208;21.192;2024-02-23T11:22:30;98946.35;;;9.80;91.81
39177;BME280;24904;52.208;21.192;2024-02-23T11:27:36;98956.11;;;9.83;91.96
39177;BME280;24904;52.208;21.192;2024-02-23T11:32:43;98956.03;;;9.84;92.18
39177;BME280;24904;52.208;21.192;2024-02-23T11:37:51;98960.25;;;9.87;92.13
39177;BME280;24904;52.208;21.192;2024-02-23T11:43:00;98967.02;;;9.91;92.54
39177;BME280;24904;52.208;21.192;2024-02-23T11:48:07;98970.35;;;9.96;92.59
39177;BME280;24904;52.208;21.192;2024-02-23T11:53:12;98976.99;;;9.97;92.64
39177;BME280;24904;52.208;21.192;2024-02-23T11:58:18;98988.34;;;9.99;92.41
39177;BME280;24904;52.208;21.192;2024-02-23T12:03:23;98992.33;;;10.01;92.91
39177;BME280;24904;52.208;21.192;2024-02-23T12:17:09;99005.87;;;10.09;92.48
39177;BME280;24904;52.208;21.192;2024-02-23T12:22:14;99014.12;;;10.07;92.60
39177;BME280;24904;52.208;21.192;2024-02-23T12:27:19;99018.89;;;10.08;92.32
39177;BME280;24904;52.208;21.192;2024-02-23T12:32:26;99021.79;;;10.08;92.40
39177;BME280;24904;52.208;21.192;2024-02-23T12:37:36;99022.88;;;10.09;92.75
39177;BME280;24904;52.208;21.192;2024-02-23T12:42:41;99029.16;;;10.08;92.57
39177;BME280;24904;52.208;21.192;2024-02-23T12:47:46;99028.92;;;10.07;92.71
39177;BME280;24904;52.208;21.192;2024-02-23T12:52:51;99034.55;;;10.09;92.63
39177;BME280;24904;52.208;21.192;2024-02-23T12:57:56;99029.54;;;10.09;92.62
39177;BME280;24904;52.208;21.192;2024-02-23T13:03:01;99025.78;;;10.07;93.05
39177;BME280;24904;52.208;21.192;2024-02-23T13:08:07;99036.80;;;10.10;92.94
39177;BME280;24904;52.208;21.192;2024-02-23T13:13:12;99045.64;;;10.13;93.17
39177;BME280;24904;52.208;21.192;2024-02-23T13:18:18;99047.13;;;10.15;93.27
39177;BME280;24904;52.208;21.192;2024-02-23T13:23:23;99059.50;;;10.17;93.38
39177;BME280;24904;52.208;21.192;2024-02-23T13:28:29;99058.86;;;10.18;93.50
39177;BME280;24904;52.208;21.192;2024-02-23T13:33:34;99061.42;;;10.19;93.65
39177;BME280;24904;52.208;21.192;2024-02-23T13:38:39;99073.41;;;10.20;93.61
39177;BME280;24904;52.208;21.192;2024-02-23T13:43:45;99082.36;;;10.20;93.73
39177;BME280;24904;52.208;21.192;2024-02-23T13:49:03;99089.02;;;10.20;93.76
39177;BME280;24904;52.208;21.192;2024-02-23T13:54:09;99100.94;;;10.20;93.71
39177;BME280;24904;52.208;21.192;2024-02-23T13:59:14;99104.79;;;10.18;93.67
39177;BME280;24904;52.208;21.192;2024-02-23T14:04:19;99098.36;;;10.18;93.93
39177;BME280;24904;52.208;21.192;2024-02-23T14:09:24;99094.27;;;10.18;93.94
39177;BME280;24904;52.208;21.192;2024-02-23T14:14:29;99093.50;;;10.18;94.06
39177;BME280;24904;52.208;21.192;2024-02-23T14:19:35;99093.90;;;10.17;94.11
39177;BME280;24904;52.208;21.192;2024-02-23T14:24:40;99100.46;;;10.19;94.26
39177;BME280;24904;52.208;21.192;2024-02-23T14:29:45;99099.77;;;10.18;94.37
39177;BME280;24904;52.208;21.192;2024-02-23T14:34:50;99115.54;;;10.16;94.40
39177;BME280;24904;52.208;21.192;2024-02-23T14:39:55;99123.13;;;10.17;94.50
39177;BME280;24904;52.208;21.192;2024-02-23T14:45:01;99130.11;;;10.18;94.45
39177;BME280;24904;52.208;21.192;2024-02-23T14:50:07;99137.48;;;10.17;94.57
39177;BME280;24904;52.208;21.192;2024-02-23T14:55:13;99143.56;;;10.19;94.61
39177;BME280;24904;52.208;21.192;2024-02-23T15:00:19;99149.98;;;10.22;94.76
39177;BME280;24904;52.208;21.192;2024-02-23T15:05:24;99158.92;;;10.21;94.55
39177;BME280;24904;52.208;21.192;2024-02-23T15:10:29;99161.67;;;10.21;94.72
39177;BME280;24904;52.208;21.192;2024-02-23T15:15:34;99159.16;;;10.22;94.67
39177;BME280;24904;52.208;21.192;2024-02-23T15:20:43;99159.25;;;10.22;94.55
39177;BME280;24904;52.208;21.192;2024-02-23T15:25:50;99162.38;;;10.22;94.76
39177;BME280;24904;52.208;21.192;2024-02-23T15:30:55;99163.71;;;10.21;94.77
39177;BME280;24904;52.208;21.192;2024-02-23T15:36:00;99164.41;;;10.22;94.80
39177;BME280;24904;52.208;21.192;2024-02-23T15:41:08;99168.58;;;10.18;94.68
39177;BME280;24904;52.208;21.192;2024-02-23T15:46:13;99176.83;;;10.16;94.78
39177;BME280;24904;52.208;21.192;2024-02-23T15:51:18;99180.36;;;10.13;94.92
39177;BME280;24904;52.208;21.192;2024-02-23T15:56:24;99189.94;;;10.11;95.03
39177;BME280;24904;52.208;21.192;2024-02-23T16:01:29;99206.37;;;10.12;94.97
39177;BME280;24904;52.208;21.192;2024-02-23T16:06:34;99214.45;;;10.09;94.92
39177;BME280;24904;52.208;21.192;2024-02-23T16:11:40;99221.67;;;10.08;94.96
39177;BME280;24904;52.208;21.192;2024-02-23T16:16:48;99221.61;;;10.07;94.92
39177;BME280;24904;52.208;21.192;2024-02-23T16:21:53;99227.58;;;10.05;94.84
39177;BME280;24904;52.208;21.192;2024-02-23T16:26:59;99239.98;;;10.02;94.83
39177;BME280;24904;52.208;21.192;2024-02-23T16:32:05;99251.42;;;10.02;94.73
39177;BME280;24904;52.208;21.192;2024-02-23T16:37:10;99260.67;;;10.00;94.60
39177;BME280;24904;52.208;21.192;2024-02-23T16:42:15;99263.66;;;9.99;94.71
39177;BME280;24904;52.208;21.192;2024-02-23T16:47:20;99260.45;;;9.99;94.51
39177;BME280;24904;52.208;21.192;2024-02-23T16:52:25;99259.96;;;10.00;94.74
39177;BME280;24904;52.208;21.192;2024-02-23T16:57:30;99262.64;;;10.00;94.41
39177;BME280;24904;52.208;21.192;2024-02-23T17:02:35;99261.77;;;9.96;94.45
39177;BME280;24904;52.208;21.192;2024-02-23T17:07:42;99269.30;;;9.94;94.51
39177;BME280;24904;52.208;21.192;2024-02-23T17:12:47;99273.95;;;9.92;94.54
39177;BME280;24904;52.208;21.192;2024-02-23T17:17:53;99274.10;;;9.93;94.58
39177;BME280;24904;52.208;21.192;2024-02-23T17:22:58;99268.64;;;9.89;94.45
39177;BME280;24904;52.208;21.192;2024-02-23T17:28:03;99270.61;;;9.85;94.43
39177;BME280;24904;52.208;21.192;2024-02-23T17:33:08;99271.78;;;9.81;94.20
39177;BME280;24904;52.208;21.192;2024-02-23T17:38:13;99277.77;;;9.75;93.98
39177;BME280;24904;52.208;21.192;2024-02-23T17:43:19;99282.48;;;9.73;94.16
39177;BME280;24904;52.208;21.192;2024-02-23T17:48:25;99275.75;;;9.72;94.44
39177;BME280;24904;52.208;21.192;2024-02-23T17:53:31;99269.15;;;9.70;94.13
39177;BME280;24904;52.208;21.192;2024-02-23T17:58:36;99266.98;;;9.65;94.18
39177;BME280;24904;52.208;21.192;2024-02-23T18:03:41;99278.58;;;9.64;94.10
39177;BME280;24904;52.208;21.192;2024-02-23T18:08:46;99278.44;;;9.63;93.99
39177;BME280;24904;52.208;21.192;2024-02-23T18:13:51;99285.58;;;9.61;93.97
39177;BME280;24904;52.208;21.192;2024-02-23T18:18:58;99293.40;;;9.57;93.93
39177;BME280;24904;52.208;21.192;2024-02-23T18:24:08;99299.02;;;9.56;94.03
39177;BME280;24904;52.208;21.192;2024-02-23T18:29:13;99309.21;;;9.56;94.17
39177;BME280;24904;52.208;21.192;2024-02-23T18:34:18;99319.07;;;9.57;94.32
39177;BME280;24904;52.208;21.192;2024-02-23T18:39:24;99311.01;;;9.55;94.29
39177;BME280;24904;52.208;21.192;2024-02-23T18:44:30;99312.27;;;9.53;94.35
39177;BME280;24904;52.208;21.192;2024-02-23T18:49:35;99313.20;;;9.52;94.49
39177;BME280;24904;52.208;21.192;2024-02-23T18:54:40;99307.65;;;9.51;94.47
39177;BME280;24904;52.208;21.192;2024-02-23T18:59:45;99299.44;;;9.51;94.39
39177;BME280;24904;52.208;21.192;2024-02-23T19:04:50;99305.30;;;9.50;94.20
39177;BME280;24904;52.208;21.192;2024-02-23T19:09:55;99307.03;;;9.50;94.03
39177;BME280;24904;52.208;21.192;2024-02-23T19:15:00;99307.04;;;9.48;94.14
39177;BME280;24904;52.208;21.192;2024-02-23T19:20:07;99306.35;;;9.46;94.27
39177;BME280;24904;52.208;21.192;2024-02-23T19:25:12;99311.52;;;9.46;94.22
39177;BME280;24904;52.208;21.192;2024-02-23T19:30:18;99307.36;;;9.45;94.19
39177;BME280;24904;52.208;21.192;2024-02-23T19:35:23;99296.80;;;9.46;94.37
39177;BME280;24904;52.208;21.192;2024-02-23T19:40:28;99305.80;;;9.47;94.38
39177;BME280;24904;52.208;21.192;2024-02-23T19:45:33;99320.12;;;9.47;94.34
39177;BME280;24904;52.208;21.192;2024-02-23T19:50:38;99327.88;;;9.46;94.14
39177;BME280;24904;52.208;21.192;2024-02-23T19:55:46;99325.52;;;9.46;94.32
39177;BME280;24904;52.208;21.192;2024-02-23T20:00:51;99332.50;;;9.46;94.33
39177;BME280;24904;52.208;21.192;2024-02-23T20:05:56;99337.58;;;9.45;94.32
39177;BME280;24904;52.208;21.192;2024-02-23T20:11:01;99336.25;;;9.45;94.36
39177;BME280;24904;52.208;21.192;2024-02-23T20:16:06;99342.75;;;9.44;94.49
39177;BME280;24904;52.208;21.192;2024-02-23T20:21:11;99341.09;;;9.49;94.52
39177;BME280;24904;52.208;21.192;2024-02-23T20:26:16;99332.16;;;9.51;94.45
39177;BME280;24904;52.208;21.192;2024-02-23T20:31:21;99332.39;;;9.53;94.14
39177;BME280;24904;52.208;21.192;2024-02-23T20:36:26;99334.27;;;9.53;93.90
39177;BME280;24904;52.208;21.192;2024-02-23T20:41:31;99329.65;;;9.53;93.60
39177;BME280;24904;52.208;21.192;2024-02-23T20:46:36;99333.96;;;9.51;93.58
39177;BME280;24904;52.208;21.192;2024-02-23T20:51:43;99327.00;;;9.48;93.42
39177;BME280;24904;52.208;21.192;2024-02-23T20:56:51;99327.09;;;9.43;93.26
39177;BME280;24904;52.208;21.192;2024-02-23T21:01:56;99332.80;;;9.39;93.20
39177;BME280;24904;52.208;21.192;2024-02-23T21:07:02;99325.92;;;9.35;93.10
39177;BME280;24904;52.208;21.192;2024-02-23T21:12:08;99313.41;;;9.31;93.11
39177;BME280;24904;52.208;21.192;2024-02-23T21:17:14;99310.75;;;9.30;93.19
39177;BME280;24904;52.208;21.192;2024-02-23T21:22:19;99309.71;;;9.24;93.04
39177;BME280;24904;52.208;21.192;2024-02-23T21:27:24;99309.34;;;9.21;93.14
39177;BME280;24904;52.208;21.192;2024-02-23T21:32:29;99315.59;;;9.20;93.41
39177;BME280;24904;52.208;21.192;2024-02-23T21:37:34;99322.64;;;9.21;93.35
39177;BME280;24904;52.208;21.192;2024-02-23T21:42:40;99317.08;;;9.23;93.61
39177;BME280;24904;52.208;21.192;2024-02-23T21:47:45;99305.33;;;9.25;93.67
39177;BME280;24904;52.208;21.192;2024-02-23T21:52:50;99298.77;;;9.26;93.77
39177;BME280;24904;52.208;21.192;2024-02-23T21:57:55;99317.23;;;9.27;93.67
39177;BME280;24904;52.208;21.192;2024-02-23T22:03:00;99322.55;;;9.27;93.67
39177;BME280;24904;52.208;21.192;2024-02-23T22:08:07;99319.89;;;9.26;93.73
39177;BME280;24904;52.208;21.192;2024-02-23T22:13:13;99318.95;;;9.26;93.79
39177;BME280;24904;52.208;21.192;2024-02-23T22:18:18;99335.23;;;9.25;93.78
39177;BME280;24904;52.208;21.192;2024-02-23T22:23:23;99314.73;;;9.23;93.69
39177;BME280;24904;52.208;21.192;2024-02-23T22:28:28;99305.73;;;9.23;93.61
39177;BME280;24904;52.208;21.192;2024-02-23T22:33:33;99296.90;;;9.21;93.34
39177;BME280;24904;52.208;21.192;2024-02-23T22:38:39;99304.33;;;9.18;93.24
39177;BME280;24904;52.208;21.192;2024-02-23T22:43:44;99304.58;;;9.14;93.04
39177;BME280;24904;52.208;21.192;2024-02-23T22:48:49;99316.86;;;9.08;92.93
39177;BME280;24904;52.208;21.192;2024-02-23T22:53:54;99317.55;;;9.01;92.78
39177;BME280;24904;52.208;21.192;2024-02-23T22:58:59;99312.46;;;8.95;92.67
39177;BME280;24904;52.208;21.192;2024-02-23T23:04:04;99317.00;;;8.90;92.67
39177;BME280;24904;52.208;21.192;2024-02-23T23:09:10;99330.52;;;8.86;92.82
39177;BME280;24904;52.208;21.192;2024-02-23T23:14:15;99343.34;;;8.86;93.02
39177;BME280;24904;52.208;21.192;2024-02-23T23:19:20;99351.24;;;8.86;93.02
39177;BME280;24904;52.208;21.192;2024-02-23T23:24:26;99342.17;;;8.83;92.92
39177;BME280;24904;52.208;21.192;2024-02-23T23:29:31;99325.98;;;8.80;93.15
39177;BME280;24904;52.208;21.192;2024-02-23T23:34:37;99334.89;;;8.81;93.27
39177;BME280;24904;52.208;21.192;2024-02-23T23:39:42;99307.45;;;8.80;93.19
39177;BME280;24904;52.208;21.192;2024-02-23T23:44:52;99294.94;;;8.77;93.18
39177;BME280;24904;52.208;21.192;2024-02-23T23:49:57;99295.80;;;8.74;93.33
39177;BME280;24904;52.208;21.192;2024-02-23T23:55:02;99296.89;;;8.72;93.29
